sensor_id;sensor_type;location;lat;lon;timestamp;P1;durP1;ratioP1;P2;durP2;ratioP2
10880;SDS011;5493;48.884;8.338;2022-12-19T00:00:23;40.37;;;16.13;;
10880;SDS011;5493;48.884;8.338;2022-12-19T00:02:51;34.40;;;15.80;;
10880;SDS011;5493;48.884;8.338;2022-12-19T00:05:18;35.67;;;16.40;;
10880;SDS011;5493;48.884;8.338;2022-12-19T00:07:46;37.53;;;16.17;;
10880;SDS011;5493;48.884;8.338;2022-12-19T00:10:13;38.13;;;16.53;;
10880;SDS011;5493;48.884;8.338;2022-12-19T00:12:40;34.17;;;15.53;;
10880;SDS011;5493;48.884;8.338;2022-12-19T00:15:06;32.13;;;14.80;;
10880;SDS011;5493;48.884;8.338;2022-12-19T00:17:34;40.23;;;18.20;;
10880;SDS011;5493;48.884;8.338;2022-12-19T00:20:02;39.73;;;17.83;;
10880;SDS011;5493;48.884;8.338;2022-12-19T00:22:28;44.87;;;19.27;;
10880;SDS011;5493;48.884;8.338;2022-12-19T00:24:55;38.50;;;19.00;;
10880;SDS011;5493;48.884;8.338;2022-12-19T00:27:21;38.60;;;18.13;;
10880;SDS011;5493;48.884;8.338;2022-12-19T00:29:48;39.03;;;16.80;;
10880;SDS011;5493;48.884;8.338;2022-12-19T00:32:14;33.63;;;15.87;;
10880;SDS011;5493;48.884;8.338;2022-12-19T00:34:41;42.47;;;17.43;;
10880;SDS011;5493;48.884;8.338;2022-12-19T00:37:09;39.77;;;17.23;;
10880;SDS011;5493;48.884;8.338;2022-12-19T00:39:36;35.67;;;17.03;;
10880;SDS011;5493;48.884;8.338;2022-12-19T00:42:02;41.60;;;18.47;;
10880;SDS011;5493;48.884;8.338;2022-12-19T00:44:29;45.53;;;17.63;;
10880;SDS011;5493;48.884;8.338;2022-12-19T00:46:56;33.60;;;16.00;;
10880;SDS011;5493;48.884;8.338;2022-12-19T00:49:22;33.77;;;16.47;;
10880;SDS011;5493;48.884;8.338;2022-12-19T00:51:49;39.53;;;17.40;;
10880;SDS011;5493;48.884;8.338;2022-12-19T00:54:17;35.10;;;16.07;;
10880;SDS011;5493;48.884;8.338;2022-12-19T00:56:44;34.23;;;16.47;;
10880;SDS011;5493;48.884;8.338;2022-12-19T00:59:10;40.87;;;18.90;;
10880;SDS011;5493;48.884;8.338;2022-12-19T01:01:38;38.77;;;17.87;;
10880;SDS011;5493;48.884;8.338;2022-12-19T01:04:06;39.23;;;17.40;;
10880;SDS011;5493;48.884;8.338;2022-12-19T01:06:36;38.60;;;17.67;;
10880;SDS011;5493;48.884;8.338;2022-12-19T01:09:06;41.70;;;18.40;;
10880;SDS011;5493;48.884;8.338;2022-12-19T01:11:34;39.37;;;18.07;;
10880;SDS011;5493;48.884;8.338;2022-12-19T01:14:18;32.80;;;14.23;;
10880;SDS011;5493;48.884;8.338;2022-12-19T01:16:45;35.77;;;15.67;;
10880;SDS011;5493;48.884;8.338;2022-12-19T01:19:11;39.23;;;16.37;;
10880;SDS011;5493;48.884;8.338;2022-12-19T01:21:38;34.00;;;16.30;;
10880;SDS011;5493;48.884;8.338;2022-12-19T01:24:05;40.03;;;18.27;;
10880;SDS011;5493;48.884;8.338;2022-12-19T01:26:31;37.53;;;17.40;;
10880;SDS011;5493;48.884;8.338;2022-12-19T01:28:59;37.97;;;16.23;;
10880;SDS011;5493;48.884;8.338;2022-12-19T01:31:26;39.37;;;16.07;;
10880;SDS011;5493;48.884;8.338;2022-12-19T01:33:52;33.17;;;14.90;;
10880;SDS011;5493;48.884;8.338;2022-12-19T01:36:19;33.20;;;14.80;;
10880;SDS011;5493;48.884;8.338;2022-12-19T01:38:45;32.23;;;15.40;;
10880;SDS011;5493;48.884;8.338;2022-12-19T01:41:12;42.67;;;18.33;;
10880;SDS011;5493;48.884;8.338;2022-12-19T01:43:55;35.47;;;15.33;;
10880;SDS011;5493;48.884;8.338;2022-12-19T01:46:25;29.27;;;12.60;;
10880;SDS011;5493;48.884;8.338;2022-12-19T01:48:57;35.30;;;15.70;;
10880;SDS011;5493;48.884;8.338;2022-12-19T01:51:34;28.13;;;13.23;;
10880;SDS011;5493;48.884;8.338;2022-12-19T01:54:05;29.27;;;12.97;;
10880;SDS011;5493;48.884;8.338;2022-12-19T01:56:35;38.37;;;15.23;;
10880;SDS011;5493;48.884;8.338;2022-12-19T01:59:06;35.17;;;14.20;;
10880;SDS011;5493;48.884;8.338;2022-12-19T02:01:39;33.73;;;15.20;;
10880;SDS011;5493;48.884;8.338;2022-12-19T02:04:07;36.50;;;15.83;;
10880;SDS011;5493;48.884;8.338;2022-12-19T02:06:35;31.67;;;15.00;;
10880;SDS011;5493;48.884;8.338;2022-12-19T02:09:04;34.80;;;16.37;;
10880;SDS011;5493;48.884;8.338;2022-12-19T02:11:30;40.40;;;18.20;;
10880;SDS011;5493;48.884;8.338;2022-12-19T02:13:57;40.63;;;18.00;;
10880;SDS011;5493;48.884;8.338;2022-12-19T02:16:25;38.47;;;18.23;;
10880;SDS011;5493;48.884;8.338;2022-12-19T02:19:07;40.87;;;16.40;;
10880;SDS011;5493;48.884;8.338;2022-12-19T02:21:56;32.40;;;15.10;;
10880;SDS011;5493;48.884;8.338;2022-12-19T02:27:29;32.20;;;14.50;;
10880;SDS011;5493;48.884;8.338;2022-12-19T02:30:14;39.60;;;17.70;;
10880;SDS011;5493;48.884;8.338;2022-12-19T02:32:55;34.20;;;17.40;;
10880;SDS011;5493;48.884;8.338;2022-12-19T02:35:29;32.17;;;14.80;;
10880;SDS011;5493;48.884;8.338;2022-12-19T02:38:01;38.33;;;15.80;;
10880;SDS011;5493;48.884;8.338;2022-12-19T02:40:37;37.50;;;17.00;;
10880;SDS011;5493;48.884;8.338;2022-12-19T02:43:07;38.30;;;17.07;;
10880;SDS011;5493;48.884;8.338;2022-12-19T02:45:37;43.13;;;17.50;;
10880;SDS011;5493;48.884;8.338;2022-12-19T02:48:07;35.90;;;17.10;;
10880;SDS011;5493;48.884;8.338;2022-12-19T02:50:35;39.23;;;17.67;;
10880;SDS011;5493;48.884;8.338;2022-12-19T02:53:03;38.17;;;16.07;;
10880;SDS011;5493;48.884;8.338;2022-12-19T02:55:30;40.20;;;18.03;;
10880;SDS011;5493;48.884;8.338;2022-12-19T03:01:10;33.03;;;15.73;;
10880;SDS011;5493;48.884;8.338;2022-12-19T03:03:49;35.97;;;16.60;;
10880;SDS011;5493;48.884;8.338;2022-12-19T03:06:25;31.13;;;15.23;;
10880;SDS011;5493;48.884;8.338;2022-12-19T03:08:59;34.93;;;16.57;;
10880;SDS011;5493;48.884;8.338;2022-12-19T03:11:34;33.40;;;14.77;;
10880;SDS011;5493;48.884;8.338;2022-12-19T03:14:05;37.40;;;17.30;;
10880;SDS011;5493;48.884;8.338;2022-12-19T03:16:34;38.43;;;18.07;;
10880;SDS011;5493;48.884;8.338;2022-12-19T03:19:03;35.77;;;16.87;;
10880;SDS011;5493;48.884;8.338;2022-12-19T03:21:34;32.73;;;16.50;;
10880;SDS011;5493;48.884;8.338;2022-12-19T03:24:03;30.67;;;14.77;;
10880;SDS011;5493;48.884;8.338;2022-12-19T03:26:33;35.00;;;16.10;;
10880;SDS011;5493;48.884;8.338;2022-12-19T03:29:07;43.93;;;17.30;;
10880;SDS011;5493;48.884;8.338;2022-12-19T03:31:36;79.57;;;26.83;;
10880;SDS011;5493;48.884;8.338;2022-12-19T03:34:07;49.90;;;19.43;;
10880;SDS011;5493;48.884;8.338;2022-12-19T03:36:39;33.93;;;16.40;;
10880;SDS011;5493;48.884;8.338;2022-12-19T03:39:09;35.53;;;15.47;;
10880;SDS011;5493;48.884;8.338;2022-12-19T03:41:38;32.90;;;15.53;;
10880;SDS011;5493;48.884;8.338;2022-12-19T03:44:24;33.43;;;14.83;;
10880;SDS011;5493;48.884;8.338;2022-12-19T03:46:56;58.37;;;20.37;;
10880;SDS011;5493;48.884;8.338;2022-12-19T03:49:27;51.47;;;21.47;;
10880;SDS011;5493;48.884;8.338;2022-12-19T03:51:56;56.47;;;20.77;;
10880;SDS011;5493;48.884;8.338;2022-12-19T03:54:26;44.63;;;18.77;;
10880;SDS011;5493;48.884;8.338;2022-12-19T03:56:57;38.17;;;16.57;;
10880;SDS011;5493;48.884;8.338;2022-12-19T03:59:32;34.53;;;16.70;;
10880;SDS011;5493;48.884;8.338;2022-12-19T04:02:01;38.10;;;16.93;;
10880;SDS011;5493;48.884;8.338;2022-12-19T04:04:31;40.37;;;17.50;;
10880;SDS011;5493;48.884;8.338;2022-12-19T04:07:02;39.97;;;17.73;;
10880;SDS011;5493;48.884;8.338;2022-12-19T04:09:30;41.23;;;18.03;;
10880;SDS011;5493;48.884;8.338;2022-12-19T04:11:59;40.63;;;17.80;;
10880;SDS011;5493;48.884;8.338;2022-12-19T04:14:29;41.03;;;17.43;;
10880;SDS011;5493;48.884;8.338;2022-12-19T04:17:00;47.03;;;18.83;;
10880;SDS011;5493;48.884;8.338;2022-12-19T04:19:35;35.03;;;16.00;;
10880;SDS011;5493;48.884;8.338;2022-12-19T04:22:09;31.77;;;16.03;;
10880;SDS011;5493;48.884;8.338;2022-12-19T04:24:41;37.10;;;16.70;;
10880;SDS011;5493;48.884;8.338;2022-12-19T04:27:10;42.40;;;18.30;;
10880;SDS011;5493;48.884;8.338;2022-12-19T04:29:39;46.73;;;18.33;;
10880;SDS011;5493;48.884;8.338;2022-12-19T04:32:07;33.80;;;16.10;;
10880;SDS011;5493;48.884;8.338;2022-12-19T04:34:37;41.57;;;17.17;;
10880;SDS011;5493;48.884;8.338;2022-12-19T04:37:04;38.60;;;15.90;;
10880;SDS011;5493;48.884;8.338;2022-12-19T04:39:31;35.67;;;16.60;;
10880;SDS011;5493;48.884;8.338;2022-12-19T04:41:58;33.33;;;15.57;;
10880;SDS011;5493;48.884;8.338;2022-12-19T04:44:24;37.07;;;17.23;;
10880;SDS011;5493;48.884;8.338;2022-12-19T04:46:51;34.43;;;16.83;;
10880;SDS011;5493;48.884;8.338;2022-12-19T04:49:17;32.73;;;16.37;;
10880;SDS011;5493;48.884;8.338;2022-12-19T04:51:45;31.73;;;16.20;;
10880;SDS011;5493;48.884;8.338;2022-12-19T04:54:12;33.50;;;15.03;;
10880;SDS011;5493;48.884;8.338;2022-12-19T04:56:38;29.27;;;14.97;;
10880;SDS011;5493;48.884;8.338;2022-12-19T04:59:05;33.57;;;16.43;;
10880;SDS011;5493;48.884;8.338;2022-12-19T05:01:31;33.30;;;15.73;;
10880;SDS011;5493;48.884;8.338;2022-12-19T05:03:58;33.60;;;15.07;;
10880;SDS011;5493;48.884;8.338;2022-12-19T05:06:25;27.97;;;14.57;;
10880;SDS011;5493;48.884;8.338;2022-12-19T05:08:52;27.87;;;14.17;;
10880;SDS011;5493;48.884;8.338;2022-12-19T05:11:19;30.90;;;14.70;;
10880;SDS011;5493;48.884;8.338;2022-12-19T05:13:46;32.23;;;13.67;;
10880;SDS011;5493;48.884;8.338;2022-12-19T05:16:13;30.37;;;12.43;;
10880;SDS011;5493;48.884;8.338;2022-12-19T05:18:41;31.80;;;15.23;;
10880;SDS011;5493;48.884;8.338;2022-12-19T05:21:08;30.70;;;13.90;;
10880;SDS011;5493;48.884;8.338;2022-12-19T05:23:35;35.40;;;15.80;;
10880;SDS011;5493;48.884;8.338;2022-12-19T05:26:03;27.53;;;14.10;;
10880;SDS011;5493;48.884;8.338;2022-12-19T05:28:31;29.53;;;14.87;;
10880;SDS011;5493;48.884;8.338;2022-12-19T05:31:02;34.83;;;15.17;;
10880;SDS011;5493;48.884;8.338;2022-12-19T05:33:30;31.37;;;14.87;;
10880;SDS011;5493;48.884;8.338;2022-12-19T05:35:57;33.70;;;16.00;;
10880;SDS011;5493;48.884;8.338;2022-12-19T05:38:24;33.47;;;15.57;;
10880;SDS011;5493;48.884;8.338;2022-12-19T05:40:51;29.40;;;14.57;;
10880;SDS011;5493;48.884;8.338;2022-12-19T05:43:19;30.33;;;14.90;;
10880;SDS011;5493;48.884;8.338;2022-12-19T05:45:45;27.33;;;13.57;;
10880;SDS011;5493;48.884;8.338;2022-12-19T05:48:12;30.90;;;14.87;;
10880;SDS011;5493;48.884;8.338;2022-12-19T05:50:38;34.20;;;15.83;;
10880;SDS011;5493;48.884;8.338;2022-12-19T05:53:05;44.63;;;18.67;;
10880;SDS011;5493;48.884;8.338;2022-12-19T05:55:31;45.23;;;19.73;;
10880;SDS011;5493;48.884;8.338;2022-12-19T05:57:58;43.43;;;19.60;;
10880;SDS011;5493;48.884;8.338;2022-12-19T06:00:26;46.43;;;21.77;;
10880;SDS011;5493;48.884;8.338;2022-12-19T06:02:52;38.93;;;19.00;;
10880;SDS011;5493;48.884;8.338;2022-12-19T06:05:19;33.17;;;16.60;;
10880;SDS011;5493;48.884;8.338;2022-12-19T06:07:46;33.70;;;15.53;;
10880;SDS011;5493;48.884;8.338;2022-12-19T06:10:12;29.80;;;14.93;;
10880;SDS011;5493;48.884;8.338;2022-12-19T06:12:39;35.63;;;18.50;;
10880;SDS011;5493;48.884;8.338;2022-12-19T06:15:06;34.50;;;18.90;;
10880;SDS011;5493;48.884;8.338;2022-12-19T06:17:34;33.17;;;18.03;;
10880;SDS011;5493;48.884;8.338;2022-12-19T06:20:01;38.87;;;19.60;;
10880;SDS011;5493;48.884;8.338;2022-12-19T06:22:27;38.80;;;20.40;;
10880;SDS011;5493;48.884;8.338;2022-12-19T06:24:54;38.47;;;19.77;;
10880;SDS011;5493;48.884;8.338;2022-12-19T06:27:20;41.23;;;20.60;;
10880;SDS011;5493;48.884;8.338;2022-12-19T06:29:47;37.03;;;18.80;;
10880;SDS011;5493;48.884;8.338;2022-12-19T06:32:13;37.10;;;16.30;;
10880;SDS011;5493;48.884;8.338;2022-12-19T06:34:41;32.47;;;15.73;;
10880;SDS011;5493;48.884;8.338;2022-12-19T06:37:08;30.37;;;14.80;;
10880;SDS011;5493;48.884;8.338;2022-12-19T06:39:34;32.67;;;17.43;;
10880;SDS011;5493;48.884;8.338;2022-12-19T06:42:01;30.63;;;17.27;;
10880;SDS011;5493;48.884;8.338;2022-12-19T06:44:51;34.57;;;16.27;;
10880;SDS011;5493;48.884;8.338;2022-12-19T06:47:19;36.37;;;18.30;;
10880;SDS011;5493;48.884;8.338;2022-12-19T06:49:48;36.27;;;17.13;;
10880;SDS011;5493;48.884;8.338;2022-12-19T06:52:15;30.73;;;15.97;;
10880;SDS011;5493;48.884;8.338;2022-12-19T06:54:42;30.83;;;15.70;;
10880;SDS011;5493;48.884;8.338;2022-12-19T06:57:09;30.90;;;14.63;;
10880;SDS011;5493;48.884;8.338;2022-12-19T06:59:35;32.73;;;14.30;;
10880;SDS011;5493;48.884;8.338;2022-12-19T07:02:03;33.67;;;15.67;;
10880;SDS011;5493;48.884;8.338;2022-12-19T07:04:44;25.73;;;13.57;;
10880;SDS011;5493;48.884;8.338;2022-12-19T07:07:16;32.90;;;16.00;;
10880;SDS011;5493;48.884;8.338;2022-12-19T07:09:43;31.63;;;15.00;;
10880;SDS011;5493;48.884;8.338;2022-12-19T07:12:10;31.40;;;16.40;;
10880;SDS011;5493;48.884;8.338;2022-12-19T07:14:36;33.90;;;17.57;;
10880;SDS011;5493;48.884;8.338;2022-12-19T07:17:03;34.67;;;16.17;;
10880;SDS011;5493;48.884;8.338;2022-12-19T07:19:30;28.60;;;13.60;;
10880;SDS011;5493;48.884;8.338;2022-12-19T07:21:58;31.63;;;14.40;;
10880;SDS011;5493;48.884;8.338;2022-12-19T07:24:28;33.17;;;15.97;;
10880;SDS011;5493;48.884;8.338;2022-12-19T07:26:55;31.60;;;15.90;;
10880;SDS011;5493;48.884;8.338;2022-12-19T07:29:22;31.73;;;15.97;;
10880;SDS011;5493;48.884;8.338;2022-12-19T07:31:49;42.67;;;17.43;;
10880;SDS011;5493;48.884;8.338;2022-12-19T07:34:16;38.73;;;17.17;;
10880;SDS011;5493;48.884;8.338;2022-12-19T07:36:42;35.00;;;17.73;;
10880;SDS011;5493;48.884;8.338;2022-12-19T07:39:09;32.37;;;16.57;;
10880;SDS011;5493;48.884;8.338;2022-12-19T07:41:37;36.67;;;17.20;;
10880;SDS011;5493;48.884;8.338;2022-12-19T07:44:04;33.93;;;17.30;;
10880;SDS011;5493;48.884;8.338;2022-12-19T07:46:30;36.57;;;18.30;;
10880;SDS011;5493;48.884;8.338;2022-12-19T07:48:57;33.77;;;17.33;;
10880;SDS011;5493;48.884;8.338;2022-12-19T07:51:24;40.77;;;21.27;;
10880;SDS011;5493;48.884;8.338;2022-12-19T07:53:50;43.30;;;23.47;;
10880;SDS011;5493;48.884;8.338;2022-12-19T07:56:17;44.87;;;21.67;;
10880;SDS011;5493;48.884;8.338;2022-12-19T07:58:45;49.00;;;22.80;;
10880;SDS011;5493;48.884;8.338;2022-12-19T08:01:11;44.73;;;23.23;;
10880;SDS011;5493;48.884;8.338;2022-12-19T08:03:38;53.50;;;25.30;;
10880;SDS011;5493;48.884;8.338;2022-12-19T08:06:05;48.30;;;26.37;;
10880;SDS011;5493;48.884;8.338;2022-12-19T08:08:32;51.90;;;23.83;;
10880;SDS011;5493;48.884;8.338;2022-12-19T08:11:07;37.33;;;20.47;;
10880;SDS011;5493;48.884;8.338;2022-12-19T08:13:34;41.43;;;20.80;;
10880;SDS011;5493;48.884;8.338;2022-12-19T08:16:03;46.10;;;24.47;;
10880;SDS011;5493;48.884;8.338;2022-12-19T08:18:30;47.97;;;24.47;;
10880;SDS011;5493;48.884;8.338;2022-12-19T08:20:57;48.23;;;25.43;;
10880;SDS011;5493;48.884;8.338;2022-12-19T08:23:23;53.57;;;26.30;;
10880;SDS011;5493;48.884;8.338;2022-12-19T08:25:57;44.43;;;23.53;;
10880;SDS011;5493;48.884;8.338;2022-12-19T08:28:24;42.83;;;20.90;;
10880;SDS011;5493;48.884;8.338;2022-12-19T08:30:51;37.60;;;19.00;;
10880;SDS011;5493;48.884;8.338;2022-12-19T08:33:19;38.00;;;18.33;;
10880;SDS011;5493;48.884;8.338;2022-12-19T08:35:45;33.73;;;17.30;;
10880;SDS011;5493;48.884;8.338;2022-12-19T08:38:12;39.17;;;19.03;;
10880;SDS011;5493;48.884;8.338;2022-12-19T08:40:38;36.50;;;18.80;;
10880;SDS011;5493;48.884;8.338;2022-12-19T08:43:05;39.63;;;19.43;;
10880;SDS011;5493;48.884;8.338;2022-12-19T08:45:31;39.47;;;19.07;;
10880;SDS011;5493;48.884;8.338;2022-12-19T08:47:58;36.90;;;18.83;;
10880;SDS011;5493;48.884;8.338;2022-12-19T08:50:26;34.13;;;15.93;;
10880;SDS011;5493;48.884;8.338;2022-12-19T08:52:52;33.80;;;14.93;;
10880;SDS011;5493;48.884;8.338;2022-12-19T08:55:19;29.17;;;16.13;;
10880;SDS011;5493;48.884;8.338;2022-12-19T08:57:45;27.50;;;14.50;;
10880;SDS011;5493;48.884;8.338;2022-12-19T09:00:12;26.70;;;14.33;;
10880;SDS011;5493;48.884;8.338;2022-12-19T09:02:40;28.53;;;15.43;;
10880;SDS011;5493;48.884;8.338;2022-12-19T09:05:06;25.17;;;14.17;;
10880;SDS011;5493;48.884;8.338;2022-12-19T09:07:35;27.53;;;15.07;;
10880;SDS011;5493;48.884;8.338;2022-12-19T09:10:01;25.50;;;12.97;;
10880;SDS011;5493;48.884;8.338;2022-12-19T09:12:28;27.67;;;14.07;;
10880;SDS011;5493;48.884;8.338;2022-12-19T09:14:54;30.67;;;14.90;;
10880;SDS011;5493;48.884;8.338;2022-12-19T09:17:21;29.83;;;14.33;;
10880;SDS011;5493;48.884;8.338;2022-12-19T09:19:47;29.17;;;16.43;;
10880;SDS011;5493;48.884;8.338;2022-12-19T09:22:14;28.83;;;15.67;;
10880;SDS011;5493;48.884;8.338;2022-12-19T09:24:42;30.27;;;16.23;;
10880;SDS011;5493;48.884;8.338;2022-12-19T09:27:09;28.47;;;15.90;;
10880;SDS011;5493;48.884;8.338;2022-12-19T09:29:36;24.67;;;13.93;;
10880;SDS011;5493;48.884;8.338;2022-12-19T09:32:02;27.00;;;14.70;;
10880;SDS011;5493;48.884;8.338;2022-12-19T09:34:29;27.73;;;14.07;;
10880;SDS011;5493;48.884;8.338;2022-12-19T09:36:55;30.43;;;14.43;;
10880;SDS011;5493;48.884;8.338;2022-12-19T09:39:22;30.47;;;15.60;;
10880;SDS011;5493;48.884;8.338;2022-12-19T09:41:57;34.67;;;16.23;;
10880;SDS011;5493;48.884;8.338;2022-12-19T09:44:37;21.83;;;12.60;;
10880;SDS011;5493;48.884;8.338;2022-12-19T09:47:18;25.20;;;12.40;;
10880;SDS011;5493;48.884;8.338;2022-12-19T09:49:50;29.23;;;14.70;;
10880;SDS011;5493;48.884;8.338;2022-12-19T09:52:20;27.63;;;13.90;;
10880;SDS011;5493;48.884;8.338;2022-12-19T09:54:52;28.20;;;14.33;;
10880;SDS011;5493;48.884;8.338;2022-12-19T09:57:25;28.97;;;15.13;;
10880;SDS011;5493;48.884;8.338;2022-12-19T10:00:01;26.67;;;13.87;;
10880;SDS011;5493;48.884;8.338;2022-12-19T10:02:35;26.73;;;14.53;;
10880;SDS011;5493;48.884;8.338;2022-12-19T10:05:10;29.03;;;17.07;;
10880;SDS011;5493;48.884;8.338;2022-12-19T10:07:43;27.83;;;16.10;;
10880;SDS011;5493;48.884;8.338;2022-12-19T10:10:12;33.80;;;17.97;;
10880;SDS011;5493;48.884;8.338;2022-12-19T10:12:45;30.07;;;17.40;;
10880;SDS011;5493;48.884;8.338;2022-12-19T10:15:24;31.40;;;17.57;;
10880;SDS011;5493;48.884;8.338;2022-12-19T10:18:13;34.37;;;18.03;;
10880;SDS011;5493;48.884;8.338;2022-12-19T10:20:52;44.67;;;21.13;;
10880;SDS011;5493;48.884;8.338;2022-12-19T10:26:17;68.13;;;30.53;;
10880;SDS011;5493;48.884;8.338;2022-12-19T10:28:54;44.17;;;22.60;;
10880;SDS011;5493;48.884;8.338;2022-12-19T10:31:31;38.97;;;20.13;;
10880;SDS011;5493;48.884;8.338;2022-12-19T10:34:04;40.67;;;19.40;;
10880;SDS011;5493;48.884;8.338;2022-12-19T10:36:41;36.30;;;18.80;;
10880;SDS011;5493;48.884;8.338;2022-12-19T10:39:11;45.33;;;21.40;;
10880;SDS011;5493;48.884;8.338;2022-12-19T10:41:47;42.43;;;20.80;;
10880;SDS011;5493;48.884;8.338;2022-12-19T10:44:21;38.57;;;21.73;;
10880;SDS011;5493;48.884;8.338;2022-12-19T10:46:52;35.87;;;19.80;;
10880;SDS011;5493;48.884;8.338;2022-12-19T10:49:19;37.27;;;20.27;;
10880;SDS011;5493;48.884;8.338;2022-12-19T10:51:51;32.73;;;17.77;;
10880;SDS011;5493;48.884;8.338;2022-12-19T10:54:23;26.63;;;15.17;;
10880;SDS011;5493;48.884;8.338;2022-12-19T10:56:50;26.50;;;15.60;;
10880;SDS011;5493;48.884;8.338;2022-12-19T10:59:17;27.47;;;14.93;;
10880;SDS011;5493;48.884;8.338;2022-12-19T11:01:46;33.67;;;17.57;;
10880;SDS011;5493;48.884;8.338;2022-12-19T11:04:16;30.50;;;16.83;;
10880;SDS011;5493;48.884;8.338;2022-12-19T11:06:50;30.27;;;17.90;;
10880;SDS011;5493;48.884;8.338;2022-12-19T11:09:29;31.17;;;17.70;;
10880;SDS011;5493;48.884;8.338;2022-12-19T11:11:58;32.73;;;17.37;;
10880;SDS011;5493;48.884;8.338;2022-12-19T11:14:27;30.60;;;16.83;;
10880;SDS011;5493;48.884;8.338;2022-12-19T11:16:56;31.87;;;18.37;;
10880;SDS011;5493;48.884;8.338;2022-12-19T11:19:27;28.67;;;16.27;;
10880;SDS011;5493;48.884;8.338;2022-12-19T11:21:56;26.57;;;15.40;;
10880;SDS011;5493;48.884;8.338;2022-12-19T11:24:28;27.00;;;15.57;;
10880;SDS011;5493;48.884;8.338;2022-12-19T11:27:00;29.27;;;16.13;;
10880;SDS011;5493;48.884;8.338;2022-12-19T11:29:36;25.20;;;15.27;;
10880;SDS011;5493;48.884;8.338;2022-12-19T11:32:21;30.33;;;15.67;;
10880;SDS011;5493;48.884;8.338;2022-12-19T11:34:50;25.67;;;14.13;;
10880;SDS011;5493;48.884;8.338;2022-12-19T11:37:17;31.67;;;16.87;;
10880;SDS011;5493;48.884;8.338;2022-12-19T11:39:47;28.70;;;15.40;;
10880;SDS011;5493;48.884;8.338;2022-12-19T11:42:20;28.57;;;14.87;;
10880;SDS011;5493;48.884;8.338;2022-12-19T11:44:52;24.93;;;14.47;;
10880;SDS011;5493;48.884;8.338;2022-12-19T11:47:29;27.33;;;14.67;;
10880;SDS011;5493;48.884;8.338;2022-12-19T11:50:01;22.57;;;13.73;;
10880;SDS011;5493;48.884;8.338;2022-12-19T11:52:37;27.83;;;14.70;;
10880;SDS011;5493;48.884;8.338;2022-12-19T11:55:13;26.30;;;15.57;;
10880;SDS011;5493;48.884;8.338;2022-12-19T11:57:43;45.67;;;23.83;;
10880;SDS011;5493;48.884;8.338;2022-12-19T12:00:11;37.07;;;20.80;;
10880;SDS011;5493;48.884;8.338;2022-12-19T12:02:47;33.20;;;17.77;;
10880;SDS011;5493;48.884;8.338;2022-12-19T12:05:31;29.10;;;15.87;;
10880;SDS011;5493;48.884;8.338;2022-12-19T12:08:23;26.13;;;15.80;;
10880;SDS011;5493;48.884;8.338;2022-12-19T12:11:01;30.70;;;15.77;;
10880;SDS011;5493;48.884;8.338;2022-12-19T12:13:38;23.53;;;14.57;;
10880;SDS011;5493;48.884;8.338;2022-12-19T12:16:12;30.70;;;16.90;;
10880;SDS011;5493;48.884;8.338;2022-12-19T12:18:50;28.43;;;15.37;;
10880;SDS011;5493;48.884;8.338;2022-12-19T12:21:30;28.40;;;15.37;;
10880;SDS011;5493;48.884;8.338;2022-12-19T12:24:04;27.60;;;15.27;;
10880;SDS011;5493;48.884;8.338;2022-12-19T12:26:40;43.67;;;23.53;;
10880;SDS011;5493;48.884;8.338;2022-12-19T12:29:14;65.47;;;32.07;;
10880;SDS011;5493;48.884;8.338;2022-12-19T12:31:49;47.90;;;25.00;;
10880;SDS011;5493;48.884;8.338;2022-12-19T12:34:40;34.40;;;18.57;;
10880;SDS011;5493;48.884;8.338;2022-12-19T12:37:17;30.10;;;16.47;;
10880;SDS011;5493;48.884;8.338;2022-12-19T12:39:56;29.97;;;17.20;;
10880;SDS011;5493;48.884;8.338;2022-12-19T12:42:42;27.37;;;16.10;;
10880;SDS011;5493;48.884;8.338;2022-12-19T12:45:18;31.93;;;17.20;;
10880;SDS011;5493;48.884;8.338;2022-12-19T12:47:48;31.97;;;17.40;;
10880;SDS011;5493;48.884;8.338;2022-12-19T12:50:20;28.97;;;16.20;;
10880;SDS011;5493;48.884;8.338;2022-12-19T12:52:49;34.70;;;18.03;;
10880;SDS011;5493;48.884;8.338;2022-12-19T12:55:22;32.17;;;20.23;;
10880;SDS011;5493;48.884;8.338;2022-12-19T12:57:51;33.60;;;19.37;;
10880;SDS011;5493;48.884;8.338;2022-12-19T13:00:22;63.47;;;34.40;;
10880;SDS011;5493;48.884;8.338;2022-12-19T13:02:51;51.90;;;29.63;;
10880;SDS011;5493;48.884;8.338;2022-12-19T13:05:28;38.83;;;21.83;;
10880;SDS011;5493;48.884;8.338;2022-12-19T13:08:00;34.67;;;19.00;;
10880;SDS011;5493;48.884;8.338;2022-12-19T13:10:52;29.83;;;18.07;;
10880;SDS011;5493;48.884;8.338;2022-12-19T13:13:20;29.83;;;17.20;;
10880;SDS011;5493;48.884;8.338;2022-12-19T13:19:14;28.47;;;16.87;;
10880;SDS011;5493;48.884;8.338;2022-12-19T13:24:45;29.73;;;18.60;;
10880;SDS011;5493;48.884;8.338;2022-12-19T13:30:02;35.77;;;20.23;;
10880;SDS011;5493;48.884;8.338;2022-12-19T13:35:34;32.00;;;17.57;;
10880;SDS011;5493;48.884;8.338;2022-12-19T13:38:04;34.60;;;19.80;;
10880;SDS011;5493;48.884;8.338;2022-12-19T13:40:53;36.37;;;18.30;;
10880;SDS011;5493;48.884;8.338;2022-12-19T13:43:23;28.17;;;16.63;;
10880;SDS011;5493;48.884;8.338;2022-12-19T13:46:17;31.03;;;17.17;;
10880;SDS011;5493;48.884;8.338;2022-12-19T13:48:51;30.97;;;17.20;;
10880;SDS011;5493;48.884;8.338;2022-12-19T13:51:21;30.10;;;17.63;;
10880;SDS011;5493;48.884;8.338;2022-12-19T13:53:52;35.03;;;18.70;;
10880;SDS011;5493;48.884;8.338;2022-12-19T13:56:19;35.90;;;19.50;;
10880;SDS011;5493;48.884;8.338;2022-12-19T13:58:47;36.70;;;19.10;;
10880;SDS011;5493;48.884;8.338;2022-12-19T14:01:17;37.63;;;20.17;;
10880;SDS011;5493;48.884;8.338;2022-12-19T14:03:49;50.37;;;21.63;;
10880;SDS011;5493;48.884;8.338;2022-12-19T14:06:19;39.93;;;19.97;;
10880;SDS011;5493;48.884;8.338;2022-12-19T14:08:48;40.27;;;21.53;;
10880;SDS011;5493;48.884;8.338;2022-12-19T14:11:17;39.60;;;22.03;;
10880;SDS011;5493;48.884;8.338;2022-12-19T14:13:46;42.50;;;21.57;;
10880;SDS011;5493;48.884;8.338;2022-12-19T14:16:33;37.47;;;20.73;;
10880;SDS011;5493;48.884;8.338;2022-12-19T14:18:59;35.73;;;21.07;;
10880;SDS011;5493;48.884;8.338;2022-12-19T14:21:26;38.30;;;21.10;;
10880;SDS011;5493;48.884;8.338;2022-12-19T14:24:07;40.73;;;19.87;;
10880;SDS011;5493;48.884;8.338;2022-12-19T14:26:35;35.90;;;19.63;;
10880;SDS011;5493;48.884;8.338;2022-12-19T14:29:04;34.77;;;18.13;;
10880;SDS011;5493;48.884;8.338;2022-12-19T14:31:34;33.83;;;19.17;;
10880;SDS011;5493;48.884;8.338;2022-12-19T14:34:03;31.90;;;18.03;;
10880;SDS011;5493;48.884;8.338;2022-12-19T14:36:30;31.23;;;17.33;;
10880;SDS011;5493;48.884;8.338;2022-12-19T14:38:58;34.20;;;19.87;;
10880;SDS011;5493;48.884;8.338;2022-12-19T14:41:40;34.17;;;18.73;;
10880;SDS011;5493;48.884;8.338;2022-12-19T14:44:41;30.07;;;17.90;;
10880;SDS011;5493;48.884;8.338;2022-12-19T14:47:10;29.93;;;17.23;;
10880;SDS011;5493;48.884;8.338;2022-12-19T14:49:38;34.37;;;19.57;;
10880;SDS011;5493;48.884;8.338;2022-12-19T14:55:12;30.10;;;17.37;;
10880;SDS011;5493;48.884;8.338;2022-12-19T14:57:54;31.87;;;18.27;;
10880;SDS011;5493;48.884;8.338;2022-12-19T15:00:23;32.00;;;18.37;;
10880;SDS011;5493;48.884;8.338;2022-12-19T15:02:52;31.07;;;17.97;;
10880;SDS011;5493;48.884;8.338;2022-12-19T15:05:19;31.33;;;18.37;;
10880;SDS011;5493;48.884;8.338;2022-12-19T15:07:47;29.97;;;17.13;;
10880;SDS011;5493;48.884;8.338;2022-12-19T15:10:17;30.27;;;16.47;;
10880;SDS011;5493;48.884;8.338;2022-12-19T15:12:48;31.33;;;16.73;;
10880;SDS011;5493;48.884;8.338;2022-12-19T15:15:39;26.53;;;15.57;;